createdAt,value
2022-10-14T00:00:03.117Z,12.3
2022-10-14T00:15:02.424Z,12.3
2022-10-14T00:30:03.055Z,12.2
2022-10-14T00:45:02.286Z,12.1
2022-10-14T01:00:02.748Z,12.0
2022-10-14T01:15:03.174Z,11.8
2022-10-14T01:30:02.643Z,11.3
2022-10-14T01:45:03.148Z,10.9
2022-10-14T02:00:02.508Z,10.5
2022-10-14T02:15:03.148Z,10.3
2022-10-14T02:30:02.383Z,10.4
2022-10-14T02:45:02.845Z,10.5
2022-10-14T03:00:02.291Z,10.7
2022-10-14T03:15:02.739Z,10.8
2022-10-14T03:30:03.190Z,10.9
2022-10-14T03:45:02.596Z,11.0
2022-10-14T04:00:03.212Z,11.0
2022-10-14T04:15:02.446Z,10.8
2022-10-14T04:30:02.877Z,10.4
2022-10-14T04:45:02.357Z,10.1
2022-10-14T05:00:02.787Z,10.0
2022-10-14T05:15:03.253Z,9.9
2022-10-14T05:30:02.657Z,9.7
2022-10-14T05:45:03.216Z,9.6
2022-10-14T06:00:02.527Z,9.4
2022-10-14T06:15:03.203Z,9.4
2022-10-14T06:30:02.414Z,9.6
2022-10-14T06:45:02.852Z,9.6
2022-10-14T07:00:02.286Z,9.5
2022-10-14T07:15:02.743Z,9.8
2022-10-14T07:30:03.214Z,10.6
2022-10-14T07:45:02.576Z,10.9
2022-10-14T08:00:03.261Z,11.3
2022-10-14T08:15:02.515Z,12.1
2022-10-14T08:30:07.306Z,12.8
2022-10-14T08:45:02.372Z,13.4
2022-10-14T09:00:02.801Z,13.6
2022-10-14T09:15:03.266Z,14.0
2022-10-14T09:30:02.678Z,14.2
2022-10-14T09:45:03.338Z,14.3
2022-10-14T10:00:02.784Z,14.4
2022-10-14T10:15:03.263Z,14.9
2022-10-14T10:30:02.466Z,15.4
2022-10-14T10:45:02.923Z,15.9
2022-10-14T11:00:02.387Z,16.8
2022-10-14T11:15:02.813Z,17.1
2022-10-14T11:30:02.307Z,17.1
2022-10-14T11:45:02.659Z,16.7
2022-10-14T12:00:03.288Z,16.5
2022-10-14T12:15:02.515Z,17.0
2022-10-14T12:30:02.988Z,17.3
2022-10-14T12:45:02.407Z,17.1
2022-10-14T13:00:02.838Z,16.8
2022-10-14T13:15:02.335Z,16.5
2022-10-14T13:30:02.727Z,16.5
2022-10-14T13:45:03.323Z,16.6
2022-10-14T14:15:03.288Z,16.2
2022-10-14T14:30:02.478Z,16.2
2022-10-14T14:45:02.934Z,16.3
2022-10-14T15:00:02.329Z,16.4
2022-10-14T15:15:02.817Z,16.3
2022-10-14T15:30:02.310Z,16.0
2022-10-14T15:45:02.739Z,15.7
2022-10-14T16:00:03.341Z,15.4
2022-10-14T16:15:02.746Z,15.1
2022-10-14T16:30:02.067Z,14.8
2022-10-14T16:45:02.435Z,14.6
2022-10-14T17:00:03.044Z,14.6
2022-10-14T17:15:02.358Z,14.4
2022-10-14T17:30:02.747Z,14.3
2022-10-14T17:45:03.358Z,14.3
2022-10-14T18:00:02.637Z,14.3
2022-10-14T18:15:03.331Z,14.3
2022-10-14T18:30:02.541Z,14.3
2022-10-14T18:45:02.981Z,14.3
2022-10-14T19:00:02.454Z,14.3
2022-10-14T19:15:02.874Z,14.3
2022-10-14T19:30:02.374Z,14.2
2022-10-14T19:45:02.750Z,14.3
2022-10-14T20:00:03.377Z,14.2
2022-10-14T20:15:02.631Z,14.1
2022-10-14T20:30:03.082Z,14.0
2022-10-14T20:45:02.513Z,13.9
2022-10-14T21:00:02.944Z,13.6
2022-10-14T21:15:02.404Z,13.4
2022-10-14T21:30:02.839Z,13.3
2022-10-14T21:45:03.408Z,13.3
2022-10-14T22:00:02.738Z,13.0
2022-10-14T22:30:02.633Z,12.1
2022-10-14T22:45:03.091Z,11.6
2022-10-14T23:00:02.510Z,11.3
2022-10-14T23:15:02.957Z,11.7
2022-10-14T23:30:02.420Z,11.9
2022-10-14T23:45:02.828Z,11.8
